Date,TemperatureHighF,TemperatureAvgF,TemperatureLowF,DewpointHighF,DewpointAvgF,DewpointLowF,HumidityHigh,HumidityAvg,HumidityLow,PressureMaxIn,PressureMinIn,WindSpeedMaxMPH,WindSpeedAvgMPH,GustSpeedMaxMPH,PrecipitationSumIn
2013-2-1,33.4,29.8,23.6,18.6,13.0,8.1,62,49,38,30.03,29.55,18,4,18,0.00
2013-2-2,30.5,26.1,19.1,24.0,14.0,6.7,87,60,42,30.19,29.98,15,3,15,0.00
2013-2-3,34.3,27.2,22.6,27.4,22.6,18.8,89,83,71,29.99,29.62,15,2,15,0.01
2013-2-4,32.9,26.4,22.4,22.4,14.0,8.7,90,61,39,29.89,29.65,18,4,18,0.00
2013-2-5,28.1,25.0,22.5,26.6,17.8,9.0,94,75,54,29.97,29.84,11,1,11,0.00
2013-2-6,42.1,32.2,27.7,31.9,23.2,9.2,95,72,45,30.21,29.83,15,2,15,0.03
2013-2-7,31.8,26.0,20.1,20.4,10.3,5.2,78,52,34,30.46,30.21,10,2,10,0.00
2013-2-8,33.4,31.7,26.4,32.2,28.3,20.8,97,87,78,30.41,29.43,24,5,24,0.13
2013-2-11,45.5,40.5,37.9,45.0,40.0,37.1,99,98,98,29.76,29.53,22,2,22,0.46
2013-2-12,45.9,39.8,32.3,41.3,31.9,26.6,99,75,53,29.82,29.54,22,3,22,0.01
2013-2-13,44.2,34.1,28.7,29.7,26.9,23.3,87,75,55,29.82,29.58,11,1,11,0.00
2013-2-14,42.4,35.2,28.6,34.8,29.2,24.8,96,80,52,29.95,29.62,10,1,10,0.24
2013-2-15,45.0,37.9,29.9,38.8,34.4,27.6,95,87,77,29.99,29.88,25,4,25,0.00
2013-2-16,38.9,33.4,28.7,35.0,31.9,27.7,98,94,80,29.88,29.56,17,2,17,0.05
2013-2-17,33.3,23.8,19.0,32.1,15.9,2.1,96,74,44,29.60,29.25,33,9,33,0.01
2013-2-18,32.9,23.9,15.8,10.6,5.7,0.0,59,46,31,30.11,29.59,29,6,29,0.00
2013-2-19,46.2,37.7,23.4,45.3,31.0,7.3,97,77,46,30.11,29.51,32,3,32,0.77
2013-2-20,40.8,34.0,26.4,40.0,23.8,12.1,98,68,45,29.73,29.49,20,4,20,0.01
2013-2-21,35.7,29.3,26.1,19.6,16.7,12.5,69,59,46,30.06,29.72,19,4,19,0.00
2013-2-22,37.4,32.8,28.5,28.5,24.9,19.4,81,72,65,30.29,30.05,15,2,15,0.00
2013-2-23,38.6,35.6,32.0,36.7,31.0,26.7,96,84,76,30.26,29.78,11,2,18,0.35
2013-2-24,42.0,37.6,32.1,41.5,36.8,31.2,98,97,96,29.79,29.52,24,3,24,0.92
2013-2-25,43.3,34.2,30.3,35.6,30.6,28.5,97,87,60,30.18,29.79,10,1,12,0.13
2013-2-26,45.1,35.9,26.8,35.6,29.9,25.8,97,80,54,30.27,30.06,10,2,12,0.00
2013-2-27,44.9,42.8,38.5,44.0,41.5,35.1,98,95,86,30.06,29.48,27,7,31,0.69
2013-2-28,48.0,39.9,36.2,42.8,38.2,35.6,98,94,79,29.58,29.44,8,1,8,0.00